<?xml version="1.0" encoding="UTF-8"?>
<gpx version="1.1" creator="https://www.youtrack.es" xsi:schemaLocation="http://www.topografix.com/GPX/1/1 http://www.topografix.com/GPX/1/1/gpx.xsd http://www.garmin.com/xmlschemas/GpxExtensions/v3 http://www.garmin.com/xmlschemas/GpxExtensionsv3.xsd http://www.garmin.com/xmlschemas/TrackPointExtension/v1 http://www.garmin.com/xmlschemas/TrackPointExtensionv1.xsd" xmlns:gpxtpx="http://www.garmin.com/xmlschemas/TrackPointExtension/v1" xmlns:gpxx="http://www.garmin.com/xmlschemas/GpxExtensions/v3" xmlns:xsi="http://www.w3.org/2001/XMLSchema-instance">
  <metadata>
    <link href="https://www.youtrack.es">
      <text>YouTrack.es</text>
    </link>
    <time>2026-05-10T21:39:51Z</time>
  </metadata>
  <trk>
    <src>https://www.youtrack.es</src>
    <link href="https://www.youtrack.es/ruta/19756-piscines-reus">
      <text>YouTrack.es</text>
    </link>
    <trkseg>
      <trkpt lat="41.15066536702216" lon="1.0929342079907656">
        <ele>117.73438262939453</ele>
        <time>2021-02-22T17:59:43.000Z</time>
      </trkpt>
      <trkpt lat="41.15156658925116" lon="1.0936760902404785">
        <ele>116.9045639038086</ele>
        <time>2021-02-22T17:59:43.035Z</time>
      </trkpt>
      <trkpt lat="41.151706064119935" lon="1.0937297344207764">
        <ele>117.50956726074219</ele>
        <time>2021-02-22T17:59:43.075Z</time>
      </trkpt>
      <trkpt lat="41.15184545516968" lon="1.0937190055847168">
        <ele>118.19140625</ele>
        <time>2021-02-22T17:59:43.120Z</time>
      </trkpt>
      <trkpt lat="41.15190572105348" lon="1.0932369623333216">
        <ele>117.10626220703125</ele>
        <time>2021-02-22T17:59:43.177Z</time>
      </trkpt>
      <trkpt lat="41.15190563723445" lon="1.0932370461523533">
        <ele>117.10676574707031</ele>
        <time>2021-02-22T17:59:43.234Z</time>
      </trkpt>
      <trkpt lat="41.15195274353027" lon="1.0928606986999512">
        <ele>117.24494934082031</ele>
        <time>2021-02-22T17:59:43.301Z</time>
      </trkpt>
      <trkpt lat="41.15143038332462" lon="1.0924689285457134">
        <ele>119.22516632080078</ele>
        <time>2021-02-22T17:59:43.388Z</time>
      </trkpt>
      <trkpt lat="41.151430467143655" lon="1.0924690123647451">
        <ele>119.22516632080078</ele>
        <time>2021-02-22T17:59:43.475Z</time>
      </trkpt>
      <trkpt lat="41.15083694458008" lon="1.0920238494873047">
        <ele>118.691162109375</ele>
        <time>2021-02-22T17:59:43.585Z</time>
      </trkpt>
      <trkpt lat="41.150150299072266" lon="1.0914123058319092">
        <ele>120.52638244628906</ele>
        <time>2021-02-22T17:59:43.722Z</time>
      </trkpt>
      <trkpt lat="41.14956021308899" lon="1.0910367965698242">
        <ele>120.00985717773438</ele>
        <time>2021-02-22T17:59:43.881Z</time>
      </trkpt>
      <trkpt lat="41.14920616149902" lon="1.0906827449798584">
        <ele>118.73548889160156</ele>
        <time>2021-02-22T17:59:44.055Z</time>
      </trkpt>
      <trkpt lat="41.148422956466675" lon="1.0901570320129395">
        <ele>117.37752532958984</ele>
        <time>2021-02-22T17:59:44.258Z</time>
      </trkpt>
      <trkpt lat="41.14847660064697" lon="1.0901033878326416">
        <ele>117.44188690185547</ele>
        <time>2021-02-22T17:59:44.463Z</time>
      </trkpt>
      <trkpt lat="41.148422956466675" lon="1.0897493362426758">
        <ele>117.39637756347656</ele>
        <time>2021-02-22T17:59:44.677Z</time>
      </trkpt>
      <trkpt lat="41.14846587181091" lon="1.0896313190460205">
        <ele>117.58946228027344</ele>
        <time>2021-02-22T17:59:44.895Z</time>
      </trkpt>
      <trkpt lat="41.14907741546631" lon="1.0884296894073486">
        <ele>121.09040832519531</ele>
        <time>2021-02-22T17:59:45.149Z</time>
      </trkpt>
      <trkpt lat="41.14900231361389" lon="1.0883009433746338">
        <ele>120.97455596923828</ele>
        <time>2021-02-22T17:59:45.407Z</time>
      </trkpt>
      <trkpt lat="41.148895025253296" lon="1.0883331298828125">
        <ele>120.77410125732422</ele>
        <time>2021-02-22T17:59:45.669Z</time>
      </trkpt>
      <trkpt lat="41.14877700805664" lon="1.0882580280303955">
        <ele>121.00580596923828</ele>
        <time>2021-02-22T17:59:45.935Z</time>
      </trkpt>
      <trkpt lat="41.148701906204224" lon="1.088118553161621">
        <ele>121.26325225830078</ele>
        <time>2021-02-22T17:59:46.206Z</time>
      </trkpt>
      <trkpt lat="41.14877700805664" lon="1.0879254341125488">
        <ele>122.22403717041016</ele>
        <time>2021-02-22T17:59:46.482Z</time>
      </trkpt>
      <trkpt lat="41.149304397404194" lon="1.0872946958988905">
        <ele>123.25968170166016</ele>
        <time>2021-02-22T17:59:46.782Z</time>
      </trkpt>
      <trkpt lat="41.14930431358516" lon="1.0872947797179222">
        <ele>123.26007843017578</ele>
        <time>2021-02-22T17:59:47.082Z</time>
      </trkpt>
      <trkpt lat="41.14987134933472" lon="1.0866165161132812">
        <ele>122.00822448730469</ele>
        <time>2021-02-22T17:59:47.407Z</time>
      </trkpt>
      <trkpt lat="41.15037560462952" lon="1.0855114459991455">
        <ele>122.03073120117188</ele>
        <time>2021-02-22T17:59:47.765Z</time>
      </trkpt>
      <trkpt lat="41.15071892738342" lon="1.0852539539337158">
        <ele>123.36946868896484</ele>
        <time>2021-02-22T17:59:48.136Z</time>
      </trkpt>
      <trkpt lat="41.15084767341614" lon="1.0850715637207031">
        <ele>124.18043518066406</ele>
        <time>2021-02-22T17:59:48.513Z</time>
      </trkpt>
      <trkpt lat="41.15097985602915" lon="1.0848151613026857">
        <ele>124.87774658203125</ele>
        <time>2021-02-22T17:59:48.898Z</time>
      </trkpt>
      <trkpt lat="41.15097977221012" lon="1.0848152451217175">
        <ele>124.87754821777344</ele>
        <time>2021-02-22T17:59:49.283Z</time>
      </trkpt>
      <trkpt lat="41.151384115219116" lon="1.0840308666229248">
        <ele>126.82941436767578</ele>
        <time>2021-02-22T17:59:49.692Z</time>
      </trkpt>
      <trkpt lat="41.15138419903815" lon="1.0840308666229248">
        <ele>126.82931518554688</ele>
        <time>2021-02-22T17:59:50.101Z</time>
      </trkpt>
      <trkpt lat="41.15110516548157" lon="1.0839879512786865">
        <ele>127.26708221435547</ele>
        <time>2021-02-22T17:59:50.519Z</time>
      </trkpt>
      <trkpt lat="41.15099796094" lon="1.084052324295044">
        <ele>127.2412338256836</ele>
        <time>2021-02-22T17:59:50.941Z</time>
      </trkpt>
      <trkpt lat="41.15071892738342" lon="1.0840094089508057">
        <ele>127.67900085449219</ele>
        <time>2021-02-22T17:59:51.372Z</time>
      </trkpt>
      <trkpt lat="41.15056872367859" lon="1.083827018737793">
        <ele>128.0</ele>
        <time>2021-02-22T17:59:51.810Z</time>
      </trkpt>
      <trkpt lat="41.15051507949829" lon="1.0836553573608398">
        <ele>128.0</ele>
        <time>2021-02-22T17:59:52.253Z</time>
      </trkpt>
      <trkpt lat="41.150494292378426" lon="1.0836989432573318">
        <ele>128.0</ele>
        <time>2021-02-22T17:59:52.697Z</time>
      </trkpt>
      <trkpt lat="41.15049437619746" lon="1.0836988594383001">
        <ele>128.0</ele>
        <time>2021-02-22T17:59:53.141Z</time>
      </trkpt>
      <trkpt lat="41.15051516331732" lon="1.0836553573608398">
        <ele>128.0</ele>
        <time>2021-02-22T17:59:53.587Z</time>
      </trkpt>
      <trkpt lat="41.15050443448126" lon="1.0835373401641846">
        <ele>128.0</ele>
        <time>2021-02-22T17:59:54.036Z</time>
      </trkpt>
      <trkpt lat="41.1505473498255" lon="1.083301305770874">
        <ele>128.0</ele>
        <time>2021-02-22T17:59:54.491Z</time>
      </trkpt>
      <trkpt lat="41.150708282366395" lon="1.0830867290496826">
        <ele>127.8931884765625</ele>
        <time>2021-02-22T17:59:54.953Z</time>
      </trkpt>
      <trkpt lat="41.150901317596436" lon="1.0830223560333252">
        <ele>127.73881530761719</ele>
        <time>2021-02-22T17:59:55.422Z</time>
      </trkpt>
      <trkpt lat="41.15109443664551" lon="1.0830974578857422">
        <ele>127.41722869873047</ele>
        <time>2021-02-22T17:59:55.898Z</time>
      </trkpt>
      <trkpt lat="41.15127691067755" lon="1.0834622383117676">
        <ele>127.19829559326172</ele>
        <time>2021-02-22T17:59:56.385Z</time>
      </trkpt>
      <trkpt lat="41.15128755569458" lon="1.0835587978363037">
        <ele>127.1855239868164</ele>
        <time>2021-02-22T17:59:56.874Z</time>
      </trkpt>
      <trkpt lat="41.15132519043982" lon="1.083539854735136">
        <ele>127.14037322998047</ele>
        <time>2021-02-22T17:59:57.364Z</time>
      </trkpt>
      <trkpt lat="41.15132527425885" lon="1.0835397709161043">
        <ele>127.14027404785156</ele>
        <time>2021-02-22T17:59:57.854Z</time>
      </trkpt>
      <trkpt lat="41.15150213241577" lon="1.083451509475708">
        <ele>126.9280776977539</ele>
        <time>2021-02-22T17:59:58.351Z</time>
      </trkpt>
      <trkpt lat="41.15158796310425" lon="1.0832905769348145">
        <ele>126.8250961303711</ele>
        <time>2021-02-22T17:59:58.853Z</time>
      </trkpt>
      <trkpt lat="41.151684522628784" lon="1.082754135131836">
        <ele>127.8233871459961</ele>
        <time>2021-02-22T17:59:59.369Z</time>
      </trkpt>
      <trkpt lat="41.15295052528381" lon="1.079782247543335">
        <ele>130.52886962890625</ele>
        <time>2021-02-22T17:59:59.970Z</time>
      </trkpt>
      <trkpt lat="41.15376407280564" lon="1.0783415660262108">
        <ele>134.0</ele>
        <time>2021-02-22T18:00:00.617Z</time>
      </trkpt>
      <trkpt lat="41.15351529791951" lon="1.077602868899703">
        <ele>135.2059326171875</ele>
        <time>2021-02-22T18:08:31.000Z</time>
      </trkpt>
      <trkpt lat="41.15354061126709" lon="1.0775291919708252">
        <ele>135.37998962402344</ele>
        <time>2021-02-22T18:08:31.002Z</time>
      </trkpt>
      <trkpt lat="41.153690814971924" lon="1.0764992237091064">
        <ele>138.0</ele>
        <time>2021-02-22T18:08:31.030Z</time>
      </trkpt>
      <trkpt lat="41.15424871444702" lon="1.0754907131195068">
        <ele>136.5499267578125</ele>
        <time>2021-02-22T18:08:31.090Z</time>
      </trkpt>
      <trkpt lat="41.15424871444702" lon="1.0741710662841797">
        <ele>138.55845642089844</ele>
        <time>2021-02-22T18:08:31.183Z</time>
      </trkpt>
      <trkpt lat="41.15449547767639" lon="1.0732483863830566">
        <ele>140.40830993652344</ele>
        <time>2021-02-22T18:08:31.301Z</time>
      </trkpt>
      <trkpt lat="41.15522503852844" lon="1.0714352130889893">
        <ele>144.24996948242188</ele>
        <time>2021-02-22T18:08:31.471Z</time>
      </trkpt>
      <trkpt lat="41.15661978721619" lon="1.0689032077789307">
        <ele>150.0</ele>
        <time>2021-02-22T18:08:31.719Z</time>
      </trkpt>
      <trkpt lat="41.15724205970764" lon="1.067948341369629">
        <ele>154.41407775878906</ele>
        <time>2021-02-22T18:08:31.999Z</time>
      </trkpt>
      <trkpt lat="41.15773558616638" lon="1.067272424697876">
        <ele>156.0</ele>
        <time>2021-02-22T18:08:32.303Z</time>
      </trkpt>
      <trkpt lat="41.158411502838135" lon="1.0666930675506592">
        <ele>157.0</ele>
        <time>2021-02-22T18:08:32.634Z</time>
      </trkpt>
      <trkpt lat="41.158915758132935" lon="1.0661137104034424">
        <ele>157.0</ele>
        <time>2021-02-22T18:08:32.987Z</time>
      </trkpt>
      <trkpt lat="41.15958094596863" lon="1.0648369789123535">
        <ele>159.66346740722656</ele>
        <time>2021-02-22T18:08:33.379Z</time>
      </trkpt>
      <trkpt lat="41.16080403327942" lon="1.0613930225372314">
        <ele>165.0</ele>
        <time>2021-02-22T18:08:33.867Z</time>
      </trkpt>
      <trkpt lat="41.1612331867218" lon="1.060577630996704">
        <ele>164.0</ele>
        <time>2021-02-22T18:08:34.380Z</time>
      </trkpt>
      <trkpt lat="41.16174817085266" lon="1.0599875450134277">
        <ele>165.49966430664062</ele>
        <time>2021-02-22T18:08:34.915Z</time>
      </trkpt>
      <trkpt lat="41.16182327270508" lon="1.057755947113037">
        <ele>160.90187072753906</ele>
        <time>2021-02-22T18:08:35.507Z</time>
      </trkpt>
      <trkpt lat="41.16182335652411" lon="1.057755947113037">
        <ele>160.90216064453125</ele>
        <time>2021-02-22T18:08:36.099Z</time>
      </trkpt>
      <trkpt lat="41.16108298301697" lon="1.057659387588501">
        <ele>159.77845764160156</ele>
        <time>2021-02-22T18:08:36.716Z</time>
      </trkpt>
      <trkpt lat="41.16021394729614" lon="1.0570478439331055">
        <ele>159.70516967773438</ele>
        <time>2021-02-22T18:08:37.365Z</time>
      </trkpt>
      <trkpt lat="41.15981698036194" lon="1.0571014881134033">
        <ele>162.64569091796875</ele>
        <time>2021-02-22T18:08:38.028Z</time>
      </trkpt>
      <trkpt lat="41.15795016288757" lon="1.057037115097046">
        <ele>160.7015380859375</ele>
        <time>2021-02-22T18:08:38.753Z</time>
      </trkpt>
      <trkpt lat="41.15731716156006" lon="1.057208776473999">
        <ele>158.39425659179688</ele>
        <time>2021-02-22T18:08:39.499Z</time>
      </trkpt>
      <trkpt lat="41.15554690361023" lon="1.0569190979003906">
        <ele>153.329833984375</ele>
        <time>2021-02-22T18:08:40.305Z</time>
      </trkpt>
      <trkpt lat="41.1552894115448" lon="1.0567259788513184">
        <ele>152.27017211914062</ele>
        <time>2021-02-22T18:08:41.121Z</time>
      </trkpt>
      <trkpt lat="41.154924631118774" lon="1.0560929775238037">
        <ele>152.231201171875</ele>
        <time>2021-02-22T18:08:41.957Z</time>
      </trkpt>
      <trkpt lat="41.154645681381226" lon="1.0558891296386719">
        <ele>151.6448516845703</ele>
        <time>2021-02-22T18:08:42.803Z</time>
      </trkpt>
      <trkpt lat="41.153916120529175" lon="1.0558462142944336">
        <ele>149.95361328125</ele>
        <time>2021-02-22T18:08:43.674Z</time>
      </trkpt>
      <trkpt lat="41.15333676338196" lon="1.0555458068847656">
        <ele>148.35891723632812</ele>
        <time>2021-02-22T18:08:44.565Z</time>
      </trkpt>
      <trkpt lat="41.15259655751288" lon="1.0554699506610632">
        <ele>147.83114624023438</ele>
        <time>2021-02-22T18:08:45.481Z</time>
      </trkpt>
      <trkpt lat="41.15259664133191" lon="1.0554699506610632">
        <ele>147.83145141601562</ele>
        <time>2021-02-22T18:08:46.397Z</time>
      </trkpt>
      <trkpt lat="41.15249991416931" lon="1.055459976196289">
        <ele>147.44741821289062</ele>
        <time>2021-02-22T18:08:47.316Z</time>
      </trkpt>
      <trkpt lat="41.152199506759644" lon="1.0551702976226807">
        <ele>145.32369995117188</ele>
        <time>2021-02-22T18:08:48.248Z</time>
      </trkpt>
      <trkpt lat="41.15148067474365" lon="1.0547840595245361">
        <ele>141.3465576171875</ele>
        <time>2021-02-22T18:08:49.206Z</time>
      </trkpt>
      <trkpt lat="41.1512017250061" lon="1.0547304153442383">
        <ele>140.6241912841797</ele>
        <time>2021-02-22T18:08:50.173Z</time>
      </trkpt>
      <trkpt lat="41.15078330039978" lon="1.0547947883605957">
        <ele>138.75064086914062</ele>
        <time>2021-02-22T18:08:51.154Z</time>
      </trkpt>
      <trkpt lat="41.15002163685858" lon="1.0546660423278809">
        <ele>134.6707305908203</ele>
        <time>2021-02-22T18:08:52.161Z</time>
      </trkpt>
      <trkpt lat="41.14976406097412" lon="1.0546875">
        <ele>132.5022735595703</ele>
        <time>2021-02-22T18:08:53.176Z</time>
      </trkpt>
      <trkpt lat="41.1477792263031" lon="1.055588722229004">
        <ele>125.92102813720703</ele>
        <time>2021-02-22T18:08:54.261Z</time>
      </trkpt>
      <trkpt lat="41.1472749710083" lon="1.055738925933838">
        <ele>124.64679718017578</ele>
        <time>2021-02-22T18:08:55.363Z</time>
      </trkpt>
      <trkpt lat="41.146910190582275" lon="1.055738925933838">
        <ele>121.79330444335938</ele>
        <time>2021-02-22T18:08:56.477Z</time>
      </trkpt>
      <trkpt lat="41.14612706936896" lon="1.0561144351959229">
        <ele>124.82244873046875</ele>
        <time>2021-02-22T18:08:57.619Z</time>
      </trkpt>
      <trkpt lat="41.1446572188288" lon="1.056908369064331">
        <ele>120.50495910644531</ele>
        <time>2021-02-22T18:08:58.814Z</time>
      </trkpt>
      <trkpt lat="41.144657135009766" lon="1.056908369064331">
        <ele>120.50526428222656</ele>
        <time>2021-02-22T18:09:00.009Z</time>
      </trkpt>
      <trkpt lat="41.142989387735724" lon="1.0578359104692936">
        <ele>117.42134857177734</ele>
        <time>2021-02-22T18:09:01.264Z</time>
      </trkpt>
      <trkpt lat="41.142989471554756" lon="1.0578358266502619">
        <ele>117.4210433959961</ele>
        <time>2021-02-22T18:09:02.519Z</time>
      </trkpt>
      <trkpt lat="41.142940605059266" lon="1.0578632354736328">
        <ele>117.49932098388672</ele>
        <time>2021-02-22T18:09:03.776Z</time>
      </trkpt>
      <trkpt lat="41.14360570907593" lon="1.0590541362762451">
        <ele>121.0</ele>
        <time>2021-02-22T18:09:05.070Z</time>
      </trkpt>
      <trkpt lat="41.14454984664917" lon="1.0611140727996826">
        <ele>124.55057525634766</ele>
        <time>2021-02-22T18:09:06.425Z</time>
      </trkpt>
      <trkpt lat="41.14582657814026" lon="1.0642790794372559">
        <ele>130.1700439453125</ele>
        <time>2021-02-22T18:09:07.871Z</time>
      </trkpt>
      <trkpt lat="41.14605188369751" lon="1.0651051998138428">
        <ele>134.09475708007812</ele>
        <time>2021-02-22T18:09:09.339Z</time>
      </trkpt>
      <trkpt lat="41.14606261253357" lon="1.0653948783874512">
        <ele>135.03529357910156</ele>
        <time>2021-02-22T18:09:10.814Z</time>
      </trkpt>
      <trkpt lat="41.14678144454956" lon="1.0665535926818848">
        <ele>132.76632690429688</ele>
        <time>2021-02-22T18:09:12.327Z</time>
      </trkpt>
      <trkpt lat="41.147425174713135" lon="1.068023443222046">
        <ele>136.31625366210938</ele>
        <time>2021-02-22T18:09:13.882Z</time>
      </trkpt>
      <trkpt lat="41.14748954772949" lon="1.0683667659759521">
        <ele>136.76290893554688</ele>
        <time>2021-02-22T18:09:15.446Z</time>
      </trkpt>
      <trkpt lat="41.14748954772949" lon="1.0698366165161133">
        <ele>136.0</ele>
        <time>2021-02-22T18:09:17.047Z</time>
      </trkpt>
      <trkpt lat="41.14806890487671" lon="1.0710811614990234">
        <ele>137.32098388671875</ele>
        <time>2021-02-22T18:09:18.685Z</time>
      </trkpt>
      <trkpt lat="41.14954948425293" lon="1.0752546787261963">
        <ele>141.72850036621094</ele>
        <time>2021-02-22T18:09:20.439Z</time>
      </trkpt>
      <trkpt lat="41.14950656890869" lon="1.0752957500517368">
        <ele>141.5740509033203</ele>
        <time>2021-02-22T18:09:22.195Z</time>
      </trkpt>
      <trkpt lat="41.14950648508966" lon="1.0752958338707685">
        <ele>141.57374572753906</ele>
        <time>2021-02-22T18:09:23.951Z</time>
      </trkpt>
      <trkpt lat="41.14879846572876" lon="1.0759735107421875">
        <ele>139.02029418945312</ele>
        <time>2021-02-22T18:09:25.736Z</time>
      </trkpt>
      <trkpt lat="41.1473286151886" lon="1.07840895652771">
        <ele>132.30628967285156</ele>
        <time>2021-02-22T18:09:27.600Z</time>
      </trkpt>
      <trkpt lat="41.147146224975586" lon="1.0788488388061523">
        <ele>132.0</ele>
        <time>2021-02-22T18:09:29.476Z</time>
      </trkpt>
      <trkpt lat="41.147178411483765" lon="1.0789775848388672">
        <ele>132.0</ele>
        <time>2021-02-22T18:09:31.356Z</time>
      </trkpt>
      <trkpt lat="41.14767202176154" lon="1.0796535015106201">
        <ele>131.82716369628906</ele>
        <time>2021-02-22T18:09:33.259Z</time>
      </trkpt>
      <trkpt lat="41.149195432662964" lon="1.0813164710998535">
        <ele>130.4542694091797</ele>
        <time>2021-02-22T18:09:35.228Z</time>
      </trkpt>
      <trkpt lat="41.149241449311376" lon="1.081361062824726">
        <ele>130.619873046875</ele>
        <time>2021-02-22T18:09:37.199Z</time>
      </trkpt>
      <trkpt lat="41.149241449311376" lon="1.0813612304627895">
        <ele>130.619873046875</ele>
        <time>2021-02-22T18:09:39.170Z</time>
      </trkpt>
      <trkpt lat="41.150676012039185" lon="1.082754135131836">
        <ele>130.0</ele>
        <time>2021-02-22T18:09:41.200Z</time>
      </trkpt>
      <trkpt lat="41.150386333465576" lon="1.082979440689087">
        <ele>130.0</ele>
        <time>2021-02-22T18:09:43.242Z</time>
      </trkpt>
      <trkpt lat="41.150418519973755" lon="1.08315110206604">
        <ele>130.0</ele>
        <time>2021-02-22T18:09:45.288Z</time>
      </trkpt>
      <trkpt lat="41.1505473498255" lon="1.083301305770874">
        <ele>130.0</ele>
        <time>2021-02-22T18:09:47.340Z</time>
      </trkpt>
      <trkpt lat="41.15050443448126" lon="1.0835373401641846">
        <ele>130.0</ele>
        <time>2021-02-22T18:09:49.398Z</time>
      </trkpt>
      <trkpt lat="41.15051516331732" lon="1.0836553573608398">
        <ele>129.6284637451172</ele>
        <time>2021-02-22T18:09:51.459Z</time>
      </trkpt>
      <trkpt lat="41.15056872367859" lon="1.083827018737793">
        <ele>129.39674377441406</ele>
        <time>2021-02-22T18:09:53.525Z</time>
      </trkpt>
      <trkpt lat="41.15071892738342" lon="1.0840094089508057">
        <ele>129.93731689453125</ele>
        <time>2021-02-22T18:09:55.597Z</time>
      </trkpt>
      <trkpt lat="41.15099796094" lon="1.084052324295044">
        <ele>129.05422973632812</ele>
        <time>2021-02-22T18:09:57.679Z</time>
      </trkpt>
      <trkpt lat="41.15110516548157" lon="1.0839879512786865">
        <ele>128.90008544921875</ele>
        <time>2021-02-22T18:09:59.765Z</time>
      </trkpt>
      <trkpt lat="41.15138419903815" lon="1.0840308666229248">
        <ele>128.33163452148438</ele>
        <time>2021-02-22T18:10:01.860Z</time>
      </trkpt>
      <trkpt lat="41.151384115219116" lon="1.0840308666229248">
        <ele>128.33132934570312</ele>
        <time>2021-02-22T18:10:03.955Z</time>
      </trkpt>
      <trkpt lat="41.15084767341614" lon="1.0850715637207031">
        <ele>125.9268798828125</ele>
        <time>2021-02-22T18:10:06.082Z</time>
      </trkpt>
      <trkpt lat="41.15071892738342" lon="1.0852539539337158">
        <ele>125.54578399658203</ele>
        <time>2021-02-22T18:10:08.215Z</time>
      </trkpt>
      <trkpt lat="41.15045741200447" lon="1.0854501742869616">
        <ele>120.96106719970703</ele>
        <time>2021-02-22T18:10:10.358Z</time>
      </trkpt>
      <trkpt lat="41.15045732818544" lon="1.0854502581059933">
        <ele>120.96046447753906</ele>
        <time>2021-02-22T18:10:12.501Z</time>
      </trkpt>
      <trkpt lat="41.15037560462952" lon="1.0855114459991455">
        <ele>120.44612121582031</ele>
        <time>2021-02-22T18:10:14.647Z</time>
      </trkpt>
      <trkpt lat="41.14987134933472" lon="1.0866165161132812">
        <ele>124.5345458984375</ele>
        <time>2021-02-22T18:10:16.826Z</time>
      </trkpt>
      <trkpt lat="41.14981393329799" lon="1.0866852477192879">
        <ele>124.0398178100586</ele>
        <time>2021-02-22T18:10:19.007Z</time>
      </trkpt>
      <trkpt lat="41.14981384947896" lon="1.0866853315383196">
        <ele>124.03921508789062</ele>
        <time>2021-02-22T18:10:21.188Z</time>
      </trkpt>
      <trkpt lat="41.14877700805664" lon="1.0879254341125488">
        <ele>123.22107696533203</ele>
        <time>2021-02-22T18:10:23.416Z</time>
      </trkpt>
      <trkpt lat="41.148701906204224" lon="1.088118553161621">
        <ele>121.40626525878906</ele>
        <time>2021-02-22T18:10:25.649Z</time>
      </trkpt>
      <trkpt lat="41.14877700805664" lon="1.0882580280303955">
        <ele>119.77059173583984</ele>
        <time>2021-02-22T18:10:27.887Z</time>
      </trkpt>
      <trkpt lat="41.148895025253296" lon="1.0883331298828125">
        <ele>119.92455291748047</ele>
        <time>2021-02-22T18:10:30.129Z</time>
      </trkpt>
      <trkpt lat="41.14900231361389" lon="1.0883009433746338">
        <ele>120.0</ele>
        <time>2021-02-22T18:10:32.375Z</time>
      </trkpt>
      <trkpt lat="41.14907741546631" lon="1.0884296894073486">
        <ele>120.05904388427734</ele>
        <time>2021-02-22T18:10:34.625Z</time>
      </trkpt>
      <trkpt lat="41.148682376369834" lon="1.0892059374600649">
        <ele>117.05571746826172</ele>
        <time>2021-02-22T18:10:36.898Z</time>
      </trkpt>
      <trkpt lat="41.1486822925508" lon="1.0892059374600649">
        <ele>117.055419921875</ele>
        <time>2021-02-22T18:10:39.171Z</time>
      </trkpt>
      <trkpt lat="41.14846587181091" lon="1.0896313190460205">
        <ele>114.34284973144531</ele>
        <time>2021-02-22T18:10:41.457Z</time>
      </trkpt>
      <trkpt lat="41.148422956466675" lon="1.0897493362426758">
        <ele>114.6517562866211</ele>
        <time>2021-02-22T18:10:43.746Z</time>
      </trkpt>
      <trkpt lat="41.14847660064697" lon="1.0901033878326416">
        <ele>115.04759979248047</ele>
        <time>2021-02-22T18:10:46.045Z</time>
      </trkpt>
      <trkpt lat="41.148422956466675" lon="1.0901570320129395">
        <ele>115.32587432861328</ele>
        <time>2021-02-22T18:10:48.346Z</time>
      </trkpt>
      <trkpt lat="41.14920616149902" lon="1.0906827449798584">
        <ele>119.62579345703125</ele>
        <time>2021-02-22T18:10:50.676Z</time>
      </trkpt>
      <trkpt lat="41.149276066571474" lon="1.090752650052309">
        <ele>119.8631362915039</ele>
        <time>2021-02-22T18:10:53.009Z</time>
      </trkpt>
    </trkseg>
  </trk>
</gpx>
